Portada
METAR-TAF:

METAR-TAF

Aeroports :

Tortola, Illes Verges Britàniques

latitud: 18-27N, longitud: 064-32W, altitud: 4 m

Observació

L'informe es va fer fa 18 minuts, a les 16:00 UTC
Vent 6 kt del Nord-Oest
Temperatura 31°C
Humitat 66%
Pressió 1011 hPa
Visibilitat: 16.1 km
Núvols disperses a una alçada de 2000 ft

METAR: TUPJ 191600Z 31006KT 10SM SCT020 31/24 A2985 RMK Q1010 VIS16KM

Hora: 12:18 (16:18 UTC)

Pronòstic

L'informe es va fer fa 23 hores i 18 minuts, a les 17:00 UTC
Pronòstic vàlid del 18 a les 18 UTC al 19 a les 18 UTC
Vent 5 kt del Nord-Est
Visibilitat 10 km o més
Escasses núvols a una alçada de 2400 ft

TAF: TUPJ 181700Z 1818/1918 04005KT 9999 FEW024

Observacions i pronòstics meteorològics de més de 4000 aeroports (METAR i TAF).

Les estacions disponibles són els punts grocs i vermells al mapa.

Posi el ratolí al punt desitjat per veure el nom de l'estació.

Feu clic per veure les observacions i els pronòstics meteorològics.

Per canviar el mapa: feu clic els botons verds amb una creu de color negre per apropar; al botó verd amb un guió per allunyar la imatge; o en les fletxes verdes per a mapes adjacents.


METAR-TAF: